Time;durP1;ratioP1;P1;durP2;ratioP2;P2;SDS_P1;SDS_P2;PMS_P1;PMS_P2;Temp;Humidity;BMP_temperature;BMP_pressure;BME280_temperature;BME280_humidity;BME280_pressure;Samples;Min_cycle;Max_cycle;Signal;HPM_P1;HPM_P2
2023/02/10 00:00:03;;;;;;;53.13;21.90;;;;;;;-6.03;100.00;100623.34;5073371;28;20033;-76
2023/02/10 00:02:29;;;;;;;53.72;22.08;;;;;;;-5.99;100.00;100626.75;5070559;28;20032;-77
2023/02/10 00:04:54;;;;;;;52.88;20.05;;;;;;;-5.95;100.00;100609.88;5058222;28;20044;-77
2023/02/10 00:07:20;;;;;;;60.25;23.45;;;;;;;-6.07;100.00;100605.94;5054314;28;20021;-76
2023/02/10 00:09:46;;;;;;;58.13;21.20;;;;;;;-6.27;100.00;100587.31;5048101;28;20104;-75
2023/02/10 00:12:12;;;;;;;55.65;22.08;;;;;;;-6.23;100.00;100610.00;5037346;28;20507;-77
2023/02/10 00:14:37;;;;;;;58.53;22.13;;;;;;;-6.07;100.00;100648.09;5058450;28;20025;-77
2023/02/10 00:17:03;;;;;;;55.95;20.45;;;;;;;-6.30;100.00;100613.75;5042955;28;20191;-76
2023/02/10 00:19:30;;;;;;;49.38;20.77;;;;;;;-6.24;100.00;100640.75;5072906;28;20024;-77
2023/02/10 00:21:59;;;;;;;61.55;23.30;;;;;;;-6.13;100.00;100653.56;5066086;28;20052;-77
2023/02/10 00:24:25;;;;;;;58.28;23.25;;;;;;;-6.23;100.00;100634.56;5029970;28;20017;-76
2023/02/10 00:26:52;;;;;;;57.03;22.20;;;;;;;-6.58;100.00;100580.44;5063188;28;20059;-76
2023/02/10 00:29:17;;;;;;;64.65;23.27;;;;;;;-6.04;100.00;100682.22;5043121;28;20097;-77
2023/02/10 00:31:43;;;;;;;50.80;21.83;;;;;;;-6.48;100.00;100609.97;5056128;28;20044;-76
2023/02/10 00:34:14;;;;;;;55.20;20.67;;;;;;;-6.46;100.00;100613.41;5045104;28;20577;-76
2023/02/10 00:36:40;;;;;;;59.50;20.50;;;;;;;-6.11;100.00;100678.06;5063349;28;20028;-76
2023/02/10 00:39:05;;;;;;;58.63;21.48;;;;;;;-6.46;100.00;100631.84;5051454;28;20039;-76
2023/02/10 00:41:31;;;;;;;47.08;19.42;;;;;;;-6.62;100.00;100607.81;5049953;28;20084;-75
2023/02/10 00:43:56;;;;;;;49.60;19.58;;;;;;;-6.65;100.00;100629.81;5053519;28;20026;-75
2023/02/10 00:46:22;;;;;;;57.30;21.60;;;;;;;-6.61;100.00;100641.09;5067591;28;20074;-77
2023/02/10 00:48:48;;;;;;;56.72;19.80;;;;;;;-6.78;100.00;100617.13;5053357;28;20025;-77
2023/02/10 00:51:14;;;;;;;49.05;19.73;;;;;;;-6.70;100.00;100641.41;5047672;28;20017;-76
2023/02/10 00:53:39;;;;;;;58.83;21.08;;;;;;;-6.64;100.00;100670.16;5051145;28;20074;-77
2023/02/10 00:56:06;;;;;;;57.38;20.75;;;;;;;-6.48;100.00;100683.69;5043914;28;20029;-77
2023/02/10 00:58:31;;;;;;;59.97;21.30;;;;;;;-6.53;100.00;100668.03;5052667;28;20036;-75
2023/02/10 01:00:57;;;;;;;51.88;20.38;;;;;;;-6.00;100.00;100728.66;5045402;28;20075;-76
2023/02/10 01:03:23;;;;;;;58.45;21.60;;;;;;;-6.71;100.00;100622.09;5039746;28;20430;-77
2023/02/10 01:05:48;;;;;;;47.28;19.92;;;;;;;-6.32;100.00;100697.22;5056525;28;20024;-77
2023/02/10 01:08:14;;;;;;;52.92;20.88;;;;;;;-6.48;100.00;100660.84;5063051;28;20032;-77
2023/02/10 01:10:40;;;;;;;55.28;21.17;;;;;;;-6.09;100.00;100742.13;5067518;28;20020;-77
2023/02/10 01:13:07;;;;;;;49.35;18.92;;;;;;;-6.63;100.00;100648.19;5063478;28;20035;-77
2023/02/10 01:15:32;;;;;;;55.97;19.85;;;;;;;-6.42;100.00;100694.91;5051455;28;20051;-74
2023/02/10 01:17:58;;;;;;;49.33;18.98;;;;;;;-6.52;100.00;100682.94;5058139;28;20108;-74
2023/02/10 01:20:25;;;;;;;52.38;19.77;;;;;;;-6.75;100.00;100659.13;5053194;28;20047;-74
2023/02/10 01:22:50;;;;;;;53.55;19.35;;;;;;;-7.33;100.00;100598.66;5052154;28;20051;-77
2023/02/10 01:25:16;;;;;;;55.05;20.38;;;;;;;-7.05;100.00;100661.75;5049141;28;20048;-75
2023/02/10 01:27:42;;;;;;;54.38;20.08;;;;;;;-6.97;100.00;100641.34;5066365;28;20033;-75
2023/02/10 01:30:08;;;;;;;50.75;19.38;;;;;;;-7.21;100.00;100606.13;5070231;28;20073;-74
2023/02/10 01:32:34;;;;;;;49.58;19.02;;;;;;;-6.80;100.00;100684.72;5048458;28;20107;-77
2023/02/10 01:34:59;;;;;;;59.97;20.65;;;;;;;-6.53;100.00;100719.84;5048839;28;20144;-77
2023/02/10 01:37:25;;;;;;;52.33;19.52;;;;;;;-6.67;100.00;100688.69;5048451;28;20029;-74
2023/02/10 01:39:50;;;;;;;46.38;18.63;;;;;;;-6.85;100.00;100659.41;5045193;28;20060;-75
2023/02/10 01:42:16;;;;;;;49.72;18.40;;;;;;;-6.76;100.00;100655.59;5074737;28;20024;-74
2023/02/10 01:44:42;;;;;;;61.38;19.63;;;;;;;-6.29;100.00;100750.66;5035713;28;20071;-76
2023/02/10 01:47:08;;;;;;;54.50;19.67;;;;;;;-6.83;100.00;100667.25;5057454;28;20536;-74
2023/02/10 01:49:40;;;;;;;64.00;21.17;;;;;;;-6.54;100.00;100718.13;5040859;28;20119;-76
2023/02/10 01:52:17;;;;;;;58.60;20.13;;;;;;;-6.41;100.00;100735.25;5056557;28;20032;-74
2023/02/10 01:54:47;;;;;;;53.67;19.38;;;;;;;-6.91;100.00;100679.78;5044699;28;20040;-74
2023/02/10 01:57:12;;;;;;;64.40;18.75;;;;;;;-6.87;100.00;100692.78;5043255;28;20029;-75
2023/02/10 01:59:39;;;;;;;44.40;17.85;;;;;;;-6.75;100.00;100702.09;5047176;28;20021;-76
2023/02/10 02:02:08;;;;;;;47.80;18.50;;;;;;;-6.70;100.00;100726.50;5062352;28;20025;-74
2023/02/10 02:04:40;;;;;;;50.25;18.98;;;;;;;-7.06;100.00;100681.94;5057352;28;20016;-75
2023/02/10 02:07:06;;;;;;;45.15;18.33;;;;;;;-7.19;100.00;100670.06;5061546;28;20044;-76
2023/02/10 02:09:31;;;;;;;51.22;18.95;;;;;;;-7.06;100.00;100681.09;5062245;28;20025;-75
2023/02/10 02:12:12;;;;;;;53.72;17.90;;;;;;;-6.47;100.00;100765.28;5058842;28;20060;-75
2023/02/10 02:14:49;;;;;;;46.35;18.45;;;;;;;-6.51;100.00;100768.91;5071886;28;20073;-75
2023/02/10 02:17:27;;;;;;;50.58;18.48;;;;;;;-6.52;100.00;100772.47;5056641;28;20044;-75
2023/02/10 02:20:43;;;;;;;42.92;19.10;;;;;;;-6.53;100.00;100767.22;5054722;28;20057;-75
2023/02/10 02:23:13;;;;;;;59.72;19.20;;;;;;;-6.58;100.00;100780.53;5058265;28;20055;-74
2023/02/10 02:25:50;;;;;;;;;;;;;;;-6.57;100.00;100777.00;5086464;28;20062;-74
2023/02/10 02:28:23;;;;;;;46.50;17.98;;;;;;;-6.55;100.00;100756.75;5055275;28;19916;-75
2023/02/10 02:31:07;;;;;;;45.47;18.20;;;;;;;-6.45;100.00;100779.25;5042901;28;20036;-75
2023/02/10 02:33:49;;;;;;;50.33;19.60;;;;;;;-6.46;100.00;100776.69;5045878;28;20054;-75
2023/02/10 02:36:33;;;;;;;52.67;18.90;;;;;;;-6.56;100.00;100769.97;5045510;28;20039;-75
2023/02/10 02:39:01;;;;;;;61.53;23.95;;;;;;;-7.05;100.00;100685.44;5059535;28;20051;-76
2023/02/10 02:41:27;;;;;;;57.13;22.10;;;;;;;-7.00;100.00;100695.84;5058743;28;20025;-75
2023/02/10 02:43:54;;;;;;;55.95;21.38;;;;;;;-6.93;100.00;100686.84;5063997;28;20033;-76
2023/02/10 02:46:35;;;;;;;55.35;21.13;;;;;;;-7.15;100.00;100668.22;5061263;28;20013;-76
2023/02/10 02:49:11;;;;;;;48.13;19.40;;;;;;;-6.73;100.00;100775.72;5061413;28;20040;-74
2023/02/10 02:51:48;;;;;;;48.10;18.42;;;;;;;-7.03;100.00;100711.72;5054261;28;20028;-75
2023/02/10 02:54:24;;;;;;;47.97;18.40;;;;;;;-7.29;100.00;100668.63;5054689;28;20266;-74
2023/02/10 02:57:02;;;;;;;42.85;17.48;;;;;;;-6.58;100.00;100775.25;5055949;28;20052;-75
2023/02/10 02:59:38;;;;;;;46.60;18.67;;;;;;;-6.66;100.00;100779.91;5051791;28;20029;-75
2023/02/10 03:02:10;;;;;;;52.10;19.35;;;;;;;-6.80;100.00;100758.41;5046573;28;20025;-74
2023/02/10 03:04:37;;;;;;;44.35;17.40;;;;;;;-6.67;100.00;100747.47;5052592;28;20018;-75
2023/02/10 03:07:03;;;;;;;46.90;18.92;;;;;;;-7.09;100.00;100700.47;5068821;28;20028;-76
2023/02/10 03:09:29;;;;;;;55.55;19.70;;;;;;;-6.71;100.00;100781.81;5062438;28;20047;-76
2023/02/10 03:11:55;;;;;;;47.53;18.08;;;;;;;-6.93;100.00;100756.13;5044006;28;20017;-76
2023/02/10 03:14:20;;;;;;;48.22;17.92;;;;;;;-7.31;100.00;100688.84;5065371;28;20035;-75
2023/02/10 03:16:46;;;;;;;49.38;19.27;;;;;;;-6.99;100.00;100764.22;5063242;28;20045;-76
2023/02/10 03:19:11;;;;;;;53.90;19.25;;;;;;;-7.09;100.00;100750.44;5062353;28;20079;-76
2023/02/10 03:21:37;;;;;;;48.83;18.88;;;;;;;-7.32;100.00;100730.03;5053940;28;20025;-73
2023/02/10 03:24:02;;;;;;;51.17;17.65;;;;;;;-7.45;100.00;100727.81;5040362;28;20033;-74
2023/02/10 03:26:29;;;;;;;45.88;17.70;;;;;;;-7.09;100.00;100789.03;5065527;28;20029;-76
2023/02/10 03:28:54;;;;;;;49.22;18.73;;;;;;;-7.28;100.00;100750.09;5051809;28;20047;-76
2023/02/10 03:31:20;;;;;;;54.72;19.45;;;;;;;-7.27;100.00;100737.81;5043766;28;20080;-76
2023/02/10 03:33:45;;;;;;;47.05;19.25;;;;;;;-7.64;100.00;100688.03;5041610;28;20084;-76
2023/02/10 03:36:11;;;;;;;42.63;18.05;;;;;;;-7.61;100.00;100672.19;5050303;28;20032;-74
2023/02/10 03:38:36;;;;;;;44.72;16.48;;;;;;;-7.59;100.00;100694.03;5056382;28;20055;-73
2023/02/10 03:41:02;;;;;;;40.88;16.20;;;;;;;-7.02;100.00;100803.75;5061684;28;20021;-76
2023/02/10 03:43:27;;;;;;;43.47;16.67;;;;;;;-7.34;100.00;100762.56;5034663;28;20104;-76
2023/02/10 03:45:53;;;;;;;46.45;17.63;;;;;;;-7.47;100.00;100724.34;5052829;28;20385;-76
2023/02/10 03:48:18;;;;;;;48.30;17.13;;;;;;;-7.29;100.00;100777.28;5048534;28;20033;-76
2023/02/10 03:50:44;;;;;;;47.30;17.17;;;;;;;-7.58;100.00;100727.28;5056818;28;20039;-77
2023/02/10 03:53:09;;;;;;;44.22;17.15;;;;;;;-7.60;100.00;100734.34;5054060;28;20063;-73
2023/02/10 03:55:35;;;;;;;44.97;16.15;;;;;;;-7.80;100.00;100706.84;5063704;28;20415;-75
2023/02/10 03:58:01;;;;;;;40.13;16.88;;;;;;;-7.52;100.00;100756.91;5047752;28;20032;-74
2023/02/10 04:00:27;;;;;;;48.88;16.38;;;;;;;-7.24;100.00;100803.47;5047096;28;20021;-75
2023/02/10 04:02:53;;;;;;;36.38;16.25;;;;;;;-7.45;100.00;100767.25;5055590;28;20131;-75
2023/02/10 04:05:18;;;;;;;41.45;17.13;;;;;;;-7.99;100.00;100692.44;5064954;28;20025;-76
2023/02/10 04:07:44;;;;;;;43.70;16.75;;;;;;;-7.74;100.00;100725.06;5060864;28;20076;-74
2023/02/10 04:10:09;;;;;;;42.33;17.88;;;;;;;-7.68;100.00;100720.53;5055802;28;20043;-75
2023/02/10 04:12:34;;;;;;;43.20;17.05;;;;;;;-7.42;100.00;100757.50;5043460;28;20025;-75
2023/02/10 04:15:00;;;;;;;46.65;18.55;;;;;;;-7.66;100.00;100721.38;5046946;28;20040;-74
2023/02/10 04:17:25;;;;;;;47.65;18.70;;;;;;;-7.47;100.00;100745.38;5048750;28;20043;-76
2023/02/10 04:19:50;;;;;;;47.88;18.88;;;;;;;-7.71;100.00;100709.19;5050301;28;20040;-75
2023/02/10 04:22:16;;;;;;;52.75;18.13;;;;;;;-7.53;100.00;100728.03;5056922;28;20086;-76
2023/02/10 04:24:42;;;;;;;48.13;18.73;;;;;;;-7.83;100.00;100688.53;5064362;28;20049;-74
2023/02/10 04:27:07;;;;;;;45.92;18.13;;;;;;;-7.52;100.00;100750.75;5063096;28;20050;-74
2023/02/10 04:29:33;;;;;;;50.70;18.60;;;;;;;-7.57;100.00;100739.50;5071455;28;20048;-74
2023/02/10 04:31:59;;;;;;;48.47;18.92;;;;;;;-7.12;100.00;100823.34;5056889;28;20091;-74
2023/02/10 04:34:24;;;;;;;51.63;18.30;;;;;;;-7.56;100.00;100751.75;5055643;28;20032;-75
2023/02/10 04:36:50;;;;;;;48.88;18.35;;;;;;;-7.44;100.00;100790.00;5058235;28;20017;-76
2023/02/10 04:39:15;;;;;;;54.28;17.67;;;;;;;-7.73;100.00;100762.69;5058768;28;20031;-75
2023/02/10 04:41:40;;;;;;;46.70;17.67;;;;;;;-8.20;100.00;100694.75;5061929;28;20050;-75
2023/02/10 04:44:06;;;;;;;47.15;18.52;;;;;;;-8.06;100.00;100740.78;5053264;28;20036;-75
2023/02/10 04:46:31;;;;;;;46.83;16.83;;;;;;;-8.07;100.00;100739.06;5054590;28;20580;-75
2023/02/10 04:48:57;;;;;;;42.50;16.25;;;;;;;-7.89;100.00;100792.91;5063799;28;20033;-74
2023/02/10 04:51:22;;;;;;;52.70;17.65;;;;;;;-8.33;100.00;100740.56;5049833;28;20409;-73
2023/02/10 04:53:47;;;;;;;44.40;18.23;;;;;;;-7.54;100.00;100847.22;5053420;28;20089;-74
2023/02/10 04:56:13;;;;;;;51.58;18.60;;;;;;;-7.70;100.00;100799.44;5040872;28;20092;-76
2023/02/10 04:58:39;;;;;;;49.75;19.00;;;;;;;-8.02;100.00;100745.06;5044953;28;20113;-76
2023/02/10 05:01:05;;;;;;;48.58;18.23;;;;;;;-7.59;100.00;100835.97;5047189;28;20101;-75
2023/02/10 05:03:30;;;;;;;57.60;20.63;;;;;;;-7.76;100.00;100818.81;5048479;28;20021;-76
2023/02/10 05:05:56;;;;;;;57.50;21.67;;;;;;;-7.75;100.00;100822.34;5039079;28;20044;-75
2023/02/10 05:08:23;;;;;;;50.25;19.17;;;;;;;-8.11;100.00;100763.69;5038289;28;20021;-74
2023/02/10 05:10:50;;;;;;;47.42;18.55;;;;;;;-7.77;100.00;100835.50;5037717;28;20021;-76
2023/02/10 05:13:15;;;;;;;54.38;20.25;;;;;;;-7.84;100.00;100799.75;5045553;28;20034;-76
2023/02/10 05:15:40;;;;;;;49.70;20.13;;;;;;;-7.60;100.00;100823.69;5044905;28;20075;-76
2023/02/10 05:18:06;;;;;;;63.10;20.90;;;;;;;-7.78;100.00;100797.00;5031337;28;20025;-76
2023/02/10 05:20:31;;;;;;;49.95;18.63;;;;;;;-7.68;100.00;100812.53;5027142;28;20028;-73
2023/02/10 05:22:57;;;;;;;45.33;17.02;;;;;;;-7.63;100.00;100842.19;5032559;28;20075;-75
2023/02/10 05:25:22;;;;;;;55.38;17.63;;;;;;;-7.73;100.00;100826.66;5042991;28;20498;-76
2023/02/10 05:27:47;;;;;;;54.55;17.90;;;;;;;-7.71;100.00;100835.34;5046679;28;20034;-77
2023/02/10 05:30:13;;;;;;;43.88;16.95;;;;;;;-7.80;100.00;100830.31;5030588;28;20499;-77
2023/02/10 05:32:57;;;;;;;46.13;17.23;;;;;;;-8.43;100.00;100734.69;5042846;28;20054;-79
2023/02/10 05:35:53;;;;;;;47.72;18.02;;;;;;;-8.11;100.00;100795.19;5059130;28;20046;-79
2023/02/10 05:38:26;;;;;;;43.38;18.02;;;;;;;-8.41;100.00;100726.78;5043760;28;20119;-78
2023/02/10 05:40:52;;;;;;;47.20;19.50;;;;;;;-8.80;100.00;100639.38;5058999;28;20032;-78
2023/02/10 05:43:19;;;;;;;48.78;17.65;;;;;;;-7.68;100.00;100844.91;5050981;28;20024;-81
2023/02/10 05:46:03;;;;;;;;;;;;;;;;;;;;;
2023/02/10 05:48:45;;;;;;;48.65;18.38;;;;;;;-8.60;100.00;100714.09;5052168;28;20020;-77
2023/02/10 05:51:25;;;;;;;42.40;17.35;;;;;;;-9.08;100.00;100674.97;5043156;28;20029;-77
2023/02/10 05:53:53;;;;;;;44.55;17.90;;;;;;;-8.40;100.00;100788.88;5046274;28;20025;-75
2023/02/10 05:56:31;;;;;;;46.75;19.95;;;;;;;-9.14;100.00;100651.50;5046682;28;20104;-78
2023/02/10 05:59:37;;;;;;;51.83;19.05;;;;;;;-9.12;100.00;100661.94;5045012;28;20021;-77
2023/02/10 06:02:05;;;;;;;42.08;16.77;;;;;;;-7.68;100.00;100880.84;5042406;28;20037;-76
2023/02/10 06:05:08;;;;;;;;;;;;;;;;;;;;;
2023/02/10 06:07:34;;;;;;;53.28;19.27;;;;;;;-8.51;100.00;100733.16;5066151;28;20051;-78
2023/02/10 06:10:15;;;;;;;44.80;17.88;;;;;;;-8.44;100.00;100774.09;5039455;28;20033;-78
2023/02/10 06:12:41;;;;;;;51.72;17.88;;;;;;;-8.54;100.00;100701.72;5010711;28;20037;-78
2023/02/10 06:15:06;;;;;;;56.55;19.25;;;;;;;-8.95;100.00;100653.72;5056600;28;20032;-78
2023/02/10 06:17:32;;;;;;;46.13;19.08;;;;;;;-8.20;100.00;100794.50;5049982;28;20793;-78
2023/02/10 06:20:32;;;;;;;53.08;18.48;;;;;;;-8.50;100.00;100787.38;5041870;28;20013;-78
2023/02/10 06:23:09;;;;;;;60.95;18.35;;;;;;;-7.84;100.00;100915.34;5036854;28;20093;-79
2023/02/10 06:25:47;;;;;;;50.85;18.13;;;;;;;-8.42;100.00;100835.28;5028737;28;20219;-79
2023/02/10 06:28:14;;;;;;;45.28;17.83;;;;;;;-8.76;100.00;100788.78;5034753;28;20033;-75
2023/02/10 06:30:39;;;;;;;48.97;18.73;;;;;;;-8.13;100.00;100875.75;5028872;28;20724;-75
2023/02/10 06:33:05;;;;;;;48.10;17.73;;;;;;;-8.02;100.00;100892.13;5041084;28;20048;-76
2023/02/10 06:35:30;;;;;;;52.95;17.85;;;;;;;-7.91;100.00;100905.91;5029156;28;20386;-77
2023/02/10 06:37:55;;;;;;;47.97;17.25;;;;;;;-7.90;100.00;100922.53;5026673;28;20028;-74
2023/02/10 06:40:20;;;;;;;45.53;16.73;;;;;;;-8.13;100.00;100862.63;5041820;28;20068;-76
2023/02/10 06:42:47;;;;;;;52.38;18.63;;;;;;;-7.67;100.00;100940.41;5032256;28;20025;-76
2023/02/10 06:45:12;;;;;;;62.83;19.05;;;;;;;-7.56;100.00;100938.38;5036564;28;20174;-76
2023/02/10 06:47:38;;;;;;;67.88;19.92;;;;;;;-7.63;100.00;100900.00;5029391;28;20052;-74
2023/02/10 06:50:03;;;;;;;48.78;18.42;;;;;;;-7.53;100.00;100909.38;5033969;28;20049;-75
2023/02/10 06:52:30;;;;;;;53.08;18.88;;;;;;;-7.39;100.00;100920.41;5043688;28;20056;-78
2023/02/10 06:54:55;;;;;;;59.22;19.23;;;;;;;-7.34;100.00;100900.13;5033142;28;20402;-78
2023/02/10 06:57:20;;;;;;;50.47;17.83;;;;;;;-7.16;100.00;100937.41;5027307;28;20040;-74
2023/02/10 06:59:46;;;;;;;48.28;19.13;;;;;;;-7.08;100.00;100949.44;5024637;28;20822;-76
2023/02/10 07:02:12;;;;;;;51.13;19.08;;;;;;;-6.97;100.00;100928.13;5032313;28;20040;-76
2023/02/10 07:04:37;;;;;;;54.30;19.73;;;;;;;-6.91;100.00;100921.88;5027966;28;20024;-74
2023/02/10 07:07:03;;;;;;;48.38;19.67;;;;;;;-6.79;100.00;100918.88;5032505;28;20025;-78
2023/02/10 07:09:28;;;;;;;57.67;19.77;;;;;;;-6.76;100.00;100910.91;5035411;28;20494;-73
2023/02/10 07:11:53;;;;;;;64.97;20.23;;;;;;;-6.53;100.00;100923.44;5040875;28;20021;-73
2023/02/10 07:14:19;;;;;;;55.53;20.20;;;;;;;-6.24;100.00;100942.81;5035849;28;20131;-75
2023/02/10 07:16:44;;;;;;;59.75;19.92;;;;;;;-6.25;100.00;100941.94;5032731;28;20055;-73
2023/02/10 07:19:10;;;;;;;51.45;20.23;;;;;;;-6.01;100.00;100937.72;5052887;28;20030;-75
2023/02/10 07:21:36;;;;;;;49.55;19.83;;;;;;;-5.11;100.00;100920.78;5036850;28;20040;-75
2023/02/10 07:24:02;;;;;;;49.75;19.65;;;;;;;-3.48;100.00;100912.09;5031541;28;20036;-73
2023/02/10 07:26:27;;;;;;;49.33;21.50;;;;;;;-2.13;100.00;100911.53;5049787;28;20021;-74
2023/02/10 07:28:53;;;;;;;49.45;19.55;;;;;;;-1.00;100.00;100921.13;5041277;28;20029;-73
2023/02/10 07:31:19;;;;;;;53.63;19.58;;;;;;;-0.99;100.00;100887.47;5033816;28;20036;-73
2023/02/10 07:33:44;;;;;;;53.03;21.85;;;;;;;-0.81;100.00;100889.19;5027934;28;20037;-73
2023/02/10 07:36:10;;;;;;;48.25;20.80;;;;;;;-0.39;100.00;100930.41;5052311;28;20025;-74
2023/02/10 07:38:37;;;;;;;55.55;23.20;;;;;;;0.18;100.00;100885.63;5038646;28;20029;-75
2023/02/10 07:41:03;;;;;;;51.72;22.38;;;;;;;0.65;100.00;100916.69;5029645;28;20121;-74
2023/02/10 07:43:28;;;;;;;42.50;20.63;;;;;;;1.91;100.00;100917.16;5043469;28;20480;-78
2023/02/10 07:45:55;;;;;;;52.00;20.90;;;;;;;2.18;92.99;100874.50;5029368;28;20093;-76
2023/02/10 07:48:21;;;;;;;48.05;22.77;;;;;;;2.38;82.14;100881.22;5034862;28;20112;-75
2023/02/10 07:50:46;;;;;;;49.95;21.17;;;;;;;3.42;81.96;100896.56;5045495;28;20120;-79
2023/02/10 07:53:15;;;;;;;49.17;22.52;;;;;;;2.77;77.21;100890.22;5027544;28;20032;-82
2023/02/10 07:55:40;;;;;;;47.50;21.20;;;;;;;3.39;76.07;100894.97;5037154;28;20028;-76
2023/02/10 07:58:06;;;;;;;45.97;20.50;;;;;;;3.08;72.86;100883.69;5042401;28;20033;-77
2023/02/10 08:00:33;;;;;;;44.92;20.85;;;;;;;2.91;82.15;100915.19;5038163;28;20053;-76
2023/02/10 08:02:58;;;;;;;48.03;19.73;;;;;;;3.49;77.85;100892.53;5022227;28;20064;-79
2023/02/10 08:05:23;;;;;;;42.30;19.75;;;;;;;4.30;73.83;100905.50;5034691;28;20052;-75
2023/02/10 08:07:49;;;;;;;41.70;19.77;;;;;;;4.73;69.83;100894.28;5069164;28;20470;-76
2023/02/10 08:10:14;;;;;;;42.75;19.52;;;;;;;4.87;67.18;100866.41;5035203;28;20153;-79
2023/02/10 08:12:40;;;;;;;49.22;21.48;;;;;;;4.96;67.37;100902.44;5045171;28;20025;-77
2023/02/10 08:15:07;;;;;;;40.25;20.17;;;;;;;5.06;66.51;100868.56;5028204;28;20376;-79
2023/02/10 08:17:33;;;;;;;37.10;19.73;;;;;;;6.01;62.52;100911.34;5052118;28;20048;-81
2023/02/10 08:19:58;;;;;;;38.97;18.92;;;;;;;5.71;62.65;100869.78;5033602;28;20483;-76
2023/02/10 08:22:23;;;;;;;38.20;18.80;;;;;;;5.94;60.72;100867.97;5039572;28;20024;-77
2023/02/10 08:24:48;;;;;;;40.90;20.13;;;;;;;6.91;60.73;100903.09;5037928;28;20468;-79
2023/02/10 08:27:14;;;;;;;46.95;21.95;;;;;;;6.56;59.96;100904.19;5049038;28;20501;-78
2023/02/10 08:29:39;;;;;;;42.97;20.30;;;;;;;7.06;58.74;100885.69;5044512;28;20470;-79
2023/02/10 08:32:04;;;;;;;40.83;21.27;;;;;;;7.63;56.66;100878.97;5026671;28;20623;-77
2023/02/10 08:34:30;;;;;;;43.65;22.38;;;;;;;8.34;54.27;100894.31;5045599;28;20115;-77
2023/02/10 08:36:55;;;;;;;47.20;21.92;;;;;;;8.33;54.83;100896.16;5039985;28;20029;-77
2023/02/10 08:39:21;;;;;;;43.88;21.80;;;;;;;8.46;56.92;100909.44;5030865;28;20032;-75
2023/02/10 08:41:47;;;;;;;45.60;22.83;;;;;;;9.13;52.40;100912.34;5031168;28;20071;-75
2023/02/10 08:44:13;;;;;;;39.13;22.17;;;;;;;10.24;51.38;100881.94;5039485;28;20179;-75
2023/02/10 08:46:38;;;;;;;40.97;21.42;;;;;;;10.83;48.81;100877.03;5041529;28;20261;-75
2023/02/10 08:49:03;;;;;;;43.17;20.95;;;;;;;10.47;48.50;100881.53;5039782;28;20032;-76
2023/02/10 08:51:30;;;;;;;40.78;22.38;;;;;;;11.02;48.02;100899.53;5035568;28;20039;-75
2023/02/10 08:53:55;;;;;;;44.92;21.90;;;;;;;11.17;49.67;100881.75;5035206;28;20087;-78
2023/02/10 08:56:21;;;;;;;41.33;21.77;;;;;;;11.14;50.13;100892.91;5066408;28;20056;-76
2023/02/10 08:58:47;;;;;;;39.72;21.75;;;;;;;10.84;49.09;100878.72;5030696;28;20033;-76
2023/02/10 09:01:18;;;;;;;41.92;22.58;;;;;;;11.33;47.82;100891.88;5040425;28;20067;-76
2023/02/10 09:03:44;;;;;;;40.15;22.92;;;;;;;12.16;46.75;100886.00;5031563;28;20115;-76
2023/02/10 09:06:24;;;;;;;38.70;22.75;;;;;;;11.92;48.14;100892.13;5035466;28;20036;-77
2023/02/10 09:08:52;;;;;;;42.78;23.25;;;;;;;11.81;48.66;100907.63;5028521;28;20028;-76
2023/02/10 09:11:18;;;;;;;39.42;22.25;;;;;;;13.18;46.10;100901.19;5024341;28;20017;-74
2023/02/10 09:13:44;;;;;;;41.10;22.63;;;;;;;13.54;44.64;100903.59;5056435;28;20205;-76
2023/02/10 09:16:10;;;;;;;40.97;23.33;;;;;;;12.23;46.35;100904.16;5052836;28;20200;-76
2023/02/10 09:18:35;;;;;;;34.30;22.10;;;;;;;13.29;45.21;100900.88;5021253;28;20035;-75
2023/02/10 09:21:01;;;;;;;32.13;21.15;;;;;;;13.59;44.38;100887.59;5059315;28;20028;-74
2023/02/10 09:23:27;;;;;;;39.20;21.55;;;;;;;14.96;43.13;100901.91;5053001;28;20072;-74
2023/02/10 09:25:57;;;;;;;36.28;20.33;;;;;;;14.25;43.16;100921.84;5052594;28;20044;-75
2023/02/10 09:28:23;;;;;;;36.72;20.48;;;;;;;14.62;42.45;100879.47;5030831;28;20017;-76
2023/02/10 09:30:49;;;;;;;30.80;19.70;;;;;;;14.16;41.67;100911.97;5034290;28;20040;-74
2023/02/10 09:33:15;;;;;;;33.22;19.92;;;;;;;14.41;42.64;100906.47;5046125;28;20542;-74
2023/02/10 09:35:40;;;;;;;35.53;20.35;;;;;;;14.38;41.81;100895.91;5032919;28;20017;-74
2023/02/10 09:38:06;;;;;;;34.83;20.25;;;;;;;13.64;42.62;100904.25;5029645;28;20081;-75
2023/02/10 09:40:37;;;;;;;30.20;19.08;;;;;;;13.62;42.76;100905.44;5034652;28;20803;-73
2023/02/10 09:43:23;;;;;;;35.85;20.70;;;;;;;13.78;43.02;100887.25;5032337;28;20502;-73
2023/02/10 09:46:00;;;;;;;35.78;20.58;;;;;;;13.04;44.05;100888.25;5054575;28;20021;-75
2023/02/10 09:48:37;;;;;;;37.00;20.58;;;;;;;13.84;44.10;100912.06;5030602;28;20037;-73
2023/02/10 09:51:37;;;;;;;35.67;19.48;;;;;;;13.61;42.10;100882.84;5033453;28;20082;-75
2023/02/10 09:54:08;;;;;;;36.50;19.75;;;;;;;14.17;43.40;100891.03;5028069;28;20505;-73
2023/02/10 09:56:34;;;;;;;34.85;19.38;;;;;;;15.39;40.18;100903.13;5040228;28;20140;-71
2023/02/10 09:59:00;;;;;;;34.13;19.40;;;;;;;14.92;40.43;100912.34;5030263;28;20745;-73
2023/02/10 10:01:32;;;;;;;30.83;18.30;;;;;;;16.04;39.34;100901.69;5039524;28;20041;-72
2023/02/10 10:04:08;;;;;;;32.65;20.13;;;;;;;15.56;39.84;100893.78;5024771;28;20071;-72
2023/02/10 10:06:39;;;;;;;31.10;18.95;;;;;;;16.30;38.84;100905.84;5012560;28;20021;-72
2023/02/10 10:09:09;;;;;;;35.08;18.98;;;;;;;16.86;38.40;100908.88;5051662;28;20044;-70
2023/02/10 10:11:37;;;;;;;;;;;;;;;17.13;37.64;100912.72;5039574;28;20029;-70
2023/02/10 10:14:03;;;;;;;38.27;19.90;;;;;;;15.05;39.54;100923.50;5035083;28;19979;-70
2023/02/10 10:16:29;;;;;;;28.88;18.45;;;;;;;16.34;38.63;100907.13;5058513;28;20035;-72
2023/02/10 10:19:36;;;;;;;31.90;19.38;;;;;;;16.30;37.98;100920.34;5049871;28;20024;-71
2023/02/10 10:22:49;;;;;;;29.15;19.05;;;;;;;17.12;37.19;100919.25;4983078;28;20087;-73
2023/02/10 10:25:43;;;;;;;30.67;19.10;;;;;;;17.99;36.57;100917.28;4926419;29;20240;-72
2023/02/10 10:28:38;;;;;;;35.70;20.52;;;;;;;17.93;36.24;100924.41;4944137;28;20504;-73
2023/02/10 10:31:12;;;;;;;36.50;19.10;;;;;;;18.65;35.64;100914.91;5028801;28;20090;-71
2023/02/10 10:33:43;;;;;;;30.73;19.48;;;;;;;19.66;33.74;100895.75;5055367;28;20029;-71
2023/02/10 10:36:21;;;;;;;28.90;20.10;;;;;;;17.82;35.58;100911.28;5019904;28;20113;-75
2023/02/10 10:38:57;;;;;;;30.25;19.23;;;;;;;18.55;34.76;100906.25;5036540;28;20083;-72
2023/02/10 10:41:27;;;;;;;32.67;19.75;;;;;;;18.44;35.01;100909.53;5024572;28;20064;-74
2023/02/10 10:43:54;;;;;;;27.90;18.63;;;;;;;18.46;35.18;100911.03;5030287;28;20032;-75
2023/02/10 10:46:56;;;;;;;29.90;20.08;;;;;;;17.94;34.39;100905.03;5028730;28;20021;-71
2023/02/10 10:49:22;;;;;;;32.47;19.60;;;;;;;18.91;33.97;100899.63;5022968;28;20493;-71
2023/02/10 10:51:48;;;;;;;29.30;19.23;;;;;;;17.72;34.54;100908.84;5033003;28;20124;-72
2023/02/10 10:54:21;;;;;;;31.27;19.77;;;;;;;19.67;33.16;100874.63;5049758;28;20056;-72
2023/02/10 10:56:48;;;;;;;32.03;19.63;;;;;;;18.21;33.90;100893.41;5033816;28;20354;-73
2023/02/10 10:59:18;;;;;;;32.63;19.23;;;;;;;20.39;32.57;100896.69;5030217;28;20032;-72
2023/02/10 11:01:45;;;;;;;31.35;17.95;;;;;;;20.22;31.72;100891.63;5049189;28;20052;-72
2023/02/10 11:04:19;;;;;;;34.42;19.42;;;;;;;19.05;33.54;100896.72;5042326;28;20431;-70
2023/02/10 11:06:51;;;;;;;26.30;18.45;;;;;;;22.12;30.88;100882.59;5024855;28;20051;-76
2023/02/10 11:09:30;;;;;;;29.02;18.60;;;;;;;21.79;30.88;100882.91;5049554;28;20032;-72
2023/02/10 11:12:05;;;;;;;31.40;18.42;;;;;;;22.24;29.61;100877.16;5040352;28;20028;-73
2023/02/10 11:14:40;;;;;;;29.55;18.85;;;;;;;19.82;32.06;100890.88;5073550;28;20508;-72